<?xml version="1.0" encoding="UTF-8" standalone="no" ?>
<gpx xmlns="http://www.topografix.com/GPX/1/1" xmlns:xsi="http://www.w3.org/2001/XMLSchema-instance" xsi:schemaLocation="http://www.topografix.com/GPX/1/1 http://www.topografix.com/GPX/1/1/gpx.xsd" version="1.1" creator="VisuGPX - https://www.visugpx.com">
  <metadata>
    <name>19aout2014</name>
    <desc><![CDATA[Parcours jardin botanique avec Bea]]></desc>
  </metadata>
  <trk>
    <name><![CDATA[2014-08-19 12:31:53]]></name>
    <trkseg>
      <trkpt lat="46.2144" lon="6.14186">
        <ele>397.64</ele>
        <time>2014-08-19T09:47:58Z</time>
      </trkpt>
      <trkpt lat="46.21438" lon="6.14189">
        <ele>397.64</ele>
        <time>2014-08-19T09:48:10Z</time>
      </trkpt>
      <trkpt lat="46.21441" lon="6.14189">
        <ele>398.12</ele>
        <time>2014-08-19T09:48:13Z</time>
      </trkpt>
      <trkpt lat="46.21456" lon="6.1419">
        <ele>399.57</ele>
        <time>2014-08-19T09:48:25Z</time>
      </trkpt>
      <trkpt lat="46.2146" lon="6.14189">
        <ele>399.57</ele>
        <time>2014-08-19T09:48:27Z</time>
      </trkpt>
      <trkpt lat="46.21462" lon="6.14189">
        <ele>399.57</ele>
        <time>2014-08-19T09:48:28Z</time>
      </trkpt>
      <trkpt lat="46.21464" lon="6.14187">
        <ele>399.57</ele>
        <time>2014-08-19T09:48:29Z</time>
      </trkpt>
      <trkpt lat="46.21474" lon="6.14186">
        <ele>399.57</ele>
        <time>2014-08-19T09:48:31Z</time>
      </trkpt>
      <trkpt lat="46.21483" lon="6.14186">
        <ele>399.57</ele>
        <time>2014-08-19T09:48:35Z</time>
      </trkpt>
      <trkpt lat="46.21494" lon="6.14182">
        <ele>398.6</ele>
        <time>2014-08-19T09:48:40Z</time>
      </trkpt>
      <trkpt lat="46.21496" lon="6.14182">
        <ele>398.6</ele>
        <time>2014-08-19T09:48:41Z</time>
      </trkpt>
      <trkpt lat="46.21528" lon="6.14183">
        <ele>398.6</ele>
        <time>2014-08-19T09:48:53Z</time>
      </trkpt>
      <trkpt lat="46.21556" lon="6.14181">
        <ele>398.12</ele>
        <time>2014-08-19T09:49:04Z</time>
      </trkpt>
      <trkpt lat="46.21589" lon="6.14176">
        <ele>398.12</ele>
        <time>2014-08-19T09:49:15Z</time>
      </trkpt>
      <trkpt lat="46.21625" lon="6.14177">
        <ele>398.12</ele>
        <time>2014-08-19T09:49:28Z</time>
      </trkpt>
      <trkpt lat="46.21653" lon="6.14203">
        <ele>398.12</ele>
        <time>2014-08-19T09:49:40Z</time>
      </trkpt>
      <trkpt lat="46.21681" lon="6.14211">
        <ele>398.12</ele>
        <time>2014-08-19T09:49:53Z</time>
      </trkpt>
      <trkpt lat="46.21686" lon="6.14209">
        <ele>398.12</ele>
        <time>2014-08-19T09:49:56Z</time>
      </trkpt>
      <trkpt lat="46.21688" lon="6.1421">
        <ele>398.12</ele>
        <time>2014-08-19T09:49:57Z</time>
      </trkpt>
      <trkpt lat="46.2169" lon="6.14212">
        <ele>398.12</ele>
        <time>2014-08-19T09:49:58Z</time>
      </trkpt>
      <trkpt lat="46.21715" lon="6.14241">
        <ele>397.64</ele>
        <time>2014-08-19T09:50:11Z</time>
      </trkpt>
      <trkpt lat="46.2174" lon="6.1427">
        <ele>396.68</ele>
        <time>2014-08-19T09:50:23Z</time>
      </trkpt>
      <trkpt lat="46.21762" lon="6.14293">
        <ele>396.2</ele>
        <time>2014-08-19T09:50:34Z</time>
      </trkpt>
      <trkpt lat="46.21779" lon="6.14303">
        <ele>395.24</ele>
        <time>2014-08-19T09:50:43Z</time>
      </trkpt>
      <trkpt lat="46.21806" lon="6.1434">
        <ele>393.8</ele>
        <time>2014-08-19T09:50:56Z</time>
      </trkpt>
      <trkpt lat="46.21807" lon="6.1437">
        <ele>393.32</ele>
        <time>2014-08-19T09:51:06Z</time>
      </trkpt>
      <trkpt lat="46.21812" lon="6.14369">
        <ele>392.36</ele>
        <time>2014-08-19T09:51:25Z</time>
      </trkpt>
      <trkpt lat="46.21758" lon="6.14547">
        <ele>391.39</ele>
        <time>2014-08-19T09:51:59Z</time>
      </trkpt>
      <trkpt lat="46.21759" lon="6.1457">
        <ele>391.39</ele>
        <time>2014-08-19T09:52:00Z</time>
      </trkpt>
      <trkpt lat="46.2175" lon="6.14558">
        <ele>391.39</ele>
        <time>2014-08-19T09:52:02Z</time>
      </trkpt>
      <trkpt lat="46.2175" lon="6.14562">
        <ele>391.39</ele>
        <time>2014-08-19T09:52:03Z</time>
      </trkpt>
      <trkpt lat="46.2175" lon="6.14566">
        <ele>391.39</ele>
        <time>2014-08-19T09:52:04Z</time>
      </trkpt>
      <trkpt lat="46.2173" lon="6.14605">
        <ele>391.39</ele>
        <time>2014-08-19T09:52:17Z</time>
      </trkpt>
      <trkpt lat="46.21727" lon="6.14612">
        <ele>391.39</ele>
        <time>2014-08-19T09:52:19Z</time>
      </trkpt>
      <trkpt lat="46.21726" lon="6.14615">
        <ele>391.39</ele>
        <time>2014-08-19T09:52:20Z</time>
      </trkpt>
      <trkpt lat="46.21724" lon="6.14625">
        <ele>391.39</ele>
        <time>2014-08-19T09:52:23Z</time>
      </trkpt>
      <trkpt lat="46.21722" lon="6.14628">
        <ele>391.39</ele>
        <time>2014-08-19T09:52:24Z</time>
      </trkpt>
      <trkpt lat="46.21716" lon="6.14642">
        <ele>390.91</ele>
        <time>2014-08-19T09:52:31Z</time>
      </trkpt>
      <trkpt lat="46.21718" lon="6.14642">
        <ele>390.91</ele>
        <time>2014-08-19T09:52:32Z</time>
      </trkpt>
      <trkpt lat="46.21724" lon="6.14644">
        <ele>390.91</ele>
        <time>2014-08-19T09:52:35Z</time>
      </trkpt>
      <trkpt lat="46.21726" lon="6.14645">
        <ele>390.91</ele>
        <time>2014-08-19T09:52:36Z</time>
      </trkpt>
      <trkpt lat="46.21739" lon="6.1465">
        <ele>392.36</ele>
        <time>2014-08-19T09:52:44Z</time>
      </trkpt>
      <trkpt lat="46.21749" lon="6.1468">
        <ele>392.84</ele>
        <time>2014-08-19T09:52:54Z</time>
      </trkpt>
      <trkpt lat="46.21742" lon="6.14732">
        <ele>391.39</ele>
        <time>2014-08-19T09:53:08Z</time>
      </trkpt>
      <trkpt lat="46.21736" lon="6.14773">
        <ele>390.43</ele>
        <time>2014-08-19T09:53:19Z</time>
      </trkpt>
      <trkpt lat="46.21736" lon="6.14782">
        <ele>390.43</ele>
        <time>2014-08-19T09:53:21Z</time>
      </trkpt>
      <trkpt lat="46.21737" lon="6.14784">
        <ele>390.43</ele>
        <time>2014-08-19T09:53:22Z</time>
      </trkpt>
      <trkpt lat="46.21739" lon="6.14786">
        <ele>390.43</ele>
        <time>2014-08-19T09:53:23Z</time>
      </trkpt>
      <trkpt lat="46.21741" lon="6.14787">
        <ele>390.43</ele>
        <time>2014-08-19T09:53:24Z</time>
      </trkpt>
      <trkpt lat="46.21744" lon="6.14788">
        <ele>390.43</ele>
        <time>2014-08-19T09:53:25Z</time>
      </trkpt>
      <trkpt lat="46.21746" lon="6.14789">
        <ele>390.43</ele>
        <time>2014-08-19T09:53:26Z</time>
      </trkpt>
      <trkpt lat="46.21748" lon="6.1479">
        <ele>390.43</ele>
        <time>2014-08-19T09:53:27Z</time>
      </trkpt>
      <trkpt lat="46.21749" lon="6.14793">
        <ele>390.43</ele>
        <time>2014-08-19T09:53:28Z</time>
      </trkpt>
      <trkpt lat="46.21751" lon="6.14795">
        <ele>390.43</ele>
        <time>2014-08-19T09:53:29Z</time>
      </trkpt>
      <trkpt lat="46.21753" lon="6.14796">
        <ele>390.43</ele>
        <time>2014-08-19T09:53:30Z</time>
      </trkpt>
      <trkpt lat="46.21755" lon="6.14797">
        <ele>390.43</ele>
        <time>2014-08-19T09:53:31Z</time>
      </trkpt>
      <trkpt lat="46.21756" lon="6.14799">
        <ele>390.43</ele>
        <time>2014-08-19T09:53:32Z</time>
      </trkpt>
      <trkpt lat="46.21757" lon="6.14801">
        <ele>390.43</ele>
        <time>2014-08-19T09:53:33Z</time>
      </trkpt>
      <trkpt lat="46.21758" lon="6.14803">
        <ele>390.43</ele>
        <time>2014-08-19T09:53:34Z</time>
      </trkpt>
      <trkpt lat="46.21759" lon="6.14806">
        <ele>390.43</ele>
        <time>2014-08-19T09:53:35Z</time>
      </trkpt>
      <trkpt lat="46.21763" lon="6.14811">
        <ele>390.43</ele>
        <time>2014-08-19T09:53:38Z</time>
      </trkpt>
      <trkpt lat="46.21764" lon="6.14813">
        <ele>390.43</ele>
        <time>2014-08-19T09:53:39Z</time>
      </trkpt>
      <trkpt lat="46.21766" lon="6.14815">
        <ele>390.43</ele>
        <time>2014-08-19T09:53:40Z</time>
      </trkpt>
      <trkpt lat="46.21774" lon="6.1483">
        <ele>390.43</ele>
        <time>2014-08-19T09:53:50Z</time>
      </trkpt>
      <trkpt lat="46.21798" lon="6.14823">
        <ele>390.91</ele>
        <time>2014-08-19T09:53:56Z</time>
      </trkpt>
      <trkpt lat="46.21824" lon="6.14812">
        <ele>390.91</ele>
        <time>2014-08-19T09:54:02Z</time>
      </trkpt>
      <trkpt lat="46.21853" lon="6.1484">
        <ele>390.91</ele>
        <time>2014-08-19T09:54:14Z</time>
      </trkpt>
      <trkpt lat="46.21877" lon="6.14863">
        <ele>391.39</ele>
        <time>2014-08-19T09:54:24Z</time>
      </trkpt>
      <trkpt lat="46.21883" lon="6.14871">
        <ele>391.39</ele>
        <time>2014-08-19T09:54:27Z</time>
      </trkpt>
      <trkpt lat="46.21884" lon="6.14876">
        <ele>391.39</ele>
        <time>2014-08-19T09:54:28Z</time>
      </trkpt>
      <trkpt lat="46.21884" lon="6.1488">
        <ele>391.39</ele>
        <time>2014-08-19T09:54:29Z</time>
      </trkpt>
      <trkpt lat="46.21875" lon="6.14924">
        <ele>390.91</ele>
        <time>2014-08-19T09:54:41Z</time>
      </trkpt>
      <trkpt lat="46.2186" lon="6.1496">
        <ele>389.95</ele>
        <time>2014-08-19T09:54:52Z</time>
      </trkpt>
      <trkpt lat="46.21839" lon="6.15005">
        <ele>388.03</ele>
        <time>2014-08-19T09:55:05Z</time>
      </trkpt>
      <trkpt lat="46.21809" lon="6.15043">
        <ele>386.59</ele>
        <time>2014-08-19T09:55:18Z</time>
      </trkpt>
      <trkpt lat="46.21792" lon="6.15059">
        <ele>386.11</ele>
        <time>2014-08-19T09:55:27Z</time>
      </trkpt>
      <trkpt lat="46.21767" lon="6.15098">
        <ele>385.15</ele>
        <time>2014-08-19T09:55:40Z</time>
      </trkpt>
      <trkpt lat="46.21757" lon="6.15119">
        <ele>384.18</ele>
        <time>2014-08-19T09:55:47Z</time>
      </trkpt>
      <trkpt lat="46.21758" lon="6.15121">
        <ele>384.18</ele>
        <time>2014-08-19T09:55:48Z</time>
      </trkpt>
      <trkpt lat="46.21782" lon="6.15134">
        <ele>384.18</ele>
        <time>2014-08-19T09:56:01Z</time>
      </trkpt>
      <trkpt lat="46.21794" lon="6.15142">
        <ele>384.66</ele>
        <time>2014-08-19T09:56:08Z</time>
      </trkpt>
      <trkpt lat="46.21815" lon="6.15163">
        <ele>384.66</ele>
        <time>2014-08-19T09:56:20Z</time>
      </trkpt>
      <trkpt lat="46.21857" lon="6.15175">
        <ele>385.15</ele>
        <time>2014-08-19T09:56:37Z</time>
      </trkpt>
      <trkpt lat="46.21867" lon="6.15179">
        <ele>385.63</ele>
        <time>2014-08-19T09:56:42Z</time>
      </trkpt>
      <trkpt lat="46.21869" lon="6.15182">
        <ele>386.59</ele>
        <time>2014-08-19T09:56:43Z</time>
      </trkpt>
      <trkpt lat="46.21871" lon="6.15184">
        <ele>386.59</ele>
        <time>2014-08-19T09:56:44Z</time>
      </trkpt>
      <trkpt lat="46.21896" lon="6.15195">
        <ele>387.07</ele>
        <time>2014-08-19T09:56:55Z</time>
      </trkpt>
      <trkpt lat="46.21929" lon="6.15207">
        <ele>387.07</ele>
        <time>2014-08-19T09:57:09Z</time>
      </trkpt>
      <trkpt lat="46.21929" lon="6.15214">
        <ele>387.07</ele>
        <time>2014-08-19T09:57:10Z</time>
      </trkpt>
      <trkpt lat="46.2193" lon="6.15219">
        <ele>387.07</ele>
        <time>2014-08-19T09:57:11Z</time>
      </trkpt>
      <trkpt lat="46.21938" lon="6.15236">
        <ele>388.03</ele>
        <time>2014-08-19T09:57:16Z</time>
      </trkpt>
      <trkpt lat="46.21938" lon="6.15239">
        <ele>388.03</ele>
        <time>2014-08-19T09:57:17Z</time>
      </trkpt>
      <trkpt lat="46.21939" lon="6.15242">
        <ele>388.03</ele>
        <time>2014-08-19T09:57:18Z</time>
      </trkpt>
      <trkpt lat="46.21941" lon="6.15244">
        <ele>388.03</ele>
        <time>2014-08-19T09:57:19Z</time>
      </trkpt>
      <trkpt lat="46.21943" lon="6.15246">
        <ele>388.03</ele>
        <time>2014-08-19T09:57:20Z</time>
      </trkpt>
      <trkpt lat="46.21946" lon="6.15249">
        <ele>388.03</ele>
        <time>2014-08-19T09:57:21Z</time>
      </trkpt>
      <trkpt lat="46.21974" lon="6.15286">
        <ele>388.03</ele>
        <time>2014-08-19T09:57:35Z</time>
      </trkpt>
      <trkpt lat="46.22002" lon="6.15314">
        <ele>388.03</ele>
        <time>2014-08-19T09:57:49Z</time>
      </trkpt>
      <trkpt lat="46.22033" lon="6.15332">
        <ele>388.03</ele>
        <time>2014-08-19T09:58:01Z</time>
      </trkpt>
      <trkpt lat="46.22067" lon="6.15352">
        <ele>388.03</ele>
        <time>2014-08-19T09:58:16Z</time>
      </trkpt>
      <trkpt lat="46.22095" lon="6.15357">
        <ele>388.03</ele>
        <time>2014-08-19T09:58:29Z</time>
      </trkpt>
      <trkpt lat="46.22114" lon="6.15347">
        <ele>388.99</ele>
        <time>2014-08-19T09:58:40Z</time>
      </trkpt>
      <trkpt lat="46.22114" lon="6.15345">
        <ele>389.47</ele>
        <time>2014-08-19T09:58:41Z</time>
      </trkpt>
      <trkpt lat="46.22113" lon="6.15344">
        <ele>390.43</ele>
        <time>2014-08-19T09:58:43Z</time>
      </trkpt>
      <trkpt lat="46.22111" lon="6.15341">
        <ele>390.43</ele>
        <time>2014-08-19T09:58:48Z</time>
      </trkpt>
      <trkpt lat="46.22111" lon="6.15339">
        <ele>390.91</ele>
        <time>2014-08-19T09:58:49Z</time>
      </trkpt>
      <trkpt lat="46.22112" lon="6.15337">
        <ele>390.91</ele>
        <time>2014-08-19T09:58:50Z</time>
      </trkpt>
      <trkpt lat="46.22113" lon="6.15335">
        <ele>390.91</ele>
        <time>2014-08-19T09:58:51Z</time>
      </trkpt>
      <trkpt lat="46.22129" lon="6.15314">
        <ele>392.84</ele>
        <time>2014-08-19T09:59:02Z</time>
      </trkpt>
      <trkpt lat="46.22148" lon="6.15302">
        <ele>391.87</ele>
        <time>2014-08-19T09:59:14Z</time>
      </trkpt>
      <trkpt lat="46.22175" lon="6.15272">
        <ele>391.39</ele>
        <time>2014-08-19T09:59:25Z</time>
      </trkpt>
      <trkpt lat="46.22203" lon="6.15239">
        <ele>390.91</ele>
        <time>2014-08-19T09:59:39Z</time>
      </trkpt>
      <trkpt lat="46.22224" lon="6.15206">
        <ele>391.39</ele>
        <time>2014-08-19T09:59:51Z</time>
      </trkpt>
      <trkpt lat="46.22251" lon="6.15174">
        <ele>391.39</ele>
        <time>2014-08-19T10:00:05Z</time>
      </trkpt>
      <trkpt lat="46.2228" lon="6.15149">
        <ele>391.39</ele>
        <time>2014-08-19T10:00:18Z</time>
      </trkpt>
      <trkpt lat="46.22307" lon="6.15124">
        <ele>391.39</ele>
        <time>2014-08-19T10:00:31Z</time>
      </trkpt>
      <trkpt lat="46.22308" lon="6.15122">
        <ele>391.39</ele>
        <time>2014-08-19T10:00:32Z</time>
      </trkpt>
      <trkpt lat="46.22309" lon="6.1512">
        <ele>391.39</ele>
        <time>2014-08-19T10:00:33Z</time>
      </trkpt>
      <trkpt lat="46.22311" lon="6.15118">
        <ele>391.39</ele>
        <time>2014-08-19T10:00:34Z</time>
      </trkpt>
      <trkpt lat="46.22313" lon="6.15118">
        <ele>391.87</ele>
        <time>2014-08-19T10:00:35Z</time>
      </trkpt>
      <trkpt lat="46.22315" lon="6.15117">
        <ele>391.87</ele>
        <time>2014-08-19T10:00:36Z</time>
      </trkpt>
      <trkpt lat="46.22343" lon="6.15122">
        <ele>389.95</ele>
        <time>2014-08-19T10:00:47Z</time>
      </trkpt>
      <trkpt lat="46.22345" lon="6.15122">
        <ele>389.95</ele>
        <time>2014-08-19T10:00:48Z</time>
      </trkpt>
      <trkpt lat="46.22347" lon="6.15123">
        <ele>389.95</ele>
        <time>2014-08-19T10:00:49Z</time>
      </trkpt>
      <trkpt lat="46.22349" lon="6.15123">
        <ele>389.95</ele>
        <time>2014-08-19T10:00:50Z</time>
      </trkpt>
      <trkpt lat="46.22352" lon="6.15123">
        <ele>389.95</ele>
        <time>2014-08-19T10:00:51Z</time>
      </trkpt>
      <trkpt lat="46.22386" lon="6.1511">
        <ele>389.47</ele>
        <time>2014-08-19T10:01:05Z</time>
      </trkpt>
      <trkpt lat="46.22397" lon="6.15105">
        <ele>389.47</ele>
        <time>2014-08-19T10:01:11Z</time>
      </trkpt>
      <trkpt lat="46.22421" lon="6.15083">
        <ele>389.47</ele>
        <time>2014-08-19T10:01:22Z</time>
      </trkpt>
      <trkpt lat="46.2245" lon="6.15057">
        <ele>389.95</ele>
        <time>2014-08-19T10:01:35Z</time>
      </trkpt>
      <trkpt lat="46.22479" lon="6.15029">
        <ele>388.99</ele>
        <time>2014-08-19T10:01:49Z</time>
      </trkpt>
      <trkpt lat="46.22504" lon="6.15007">
        <ele>388.99</ele>
        <time>2014-08-19T10:02:03Z</time>
      </trkpt>
      <trkpt lat="46.22514" lon="6.14984">
        <ele>388.99</ele>
        <time>2014-08-19T10:02:12Z</time>
      </trkpt>
      <trkpt lat="46.22515" lon="6.14982">
        <ele>388.99</ele>
        <time>2014-08-19T10:02:13Z</time>
      </trkpt>
      <trkpt lat="46.22516" lon="6.14979">
        <ele>388.99</ele>
        <time>2014-08-19T10:02:14Z</time>
      </trkpt>
      <trkpt lat="46.22521" lon="6.14964">
        <ele>389.47</ele>
        <time>2014-08-19T10:02:20Z</time>
      </trkpt>
      <trkpt lat="46.22523" lon="6.14961">
        <ele>389.47</ele>
        <time>2014-08-19T10:02:21Z</time>
      </trkpt>
      <trkpt lat="46.22525" lon="6.14958">
        <ele>389.47</ele>
        <time>2014-08-19T10:02:22Z</time>
      </trkpt>
      <trkpt lat="46.22527" lon="6.14957">
        <ele>389.47</ele>
        <time>2014-08-19T10:02:23Z</time>
      </trkpt>
      <trkpt lat="46.22528" lon="6.14957">
        <ele>389.47</ele>
        <time>2014-08-19T10:02:24Z</time>
      </trkpt>
      <trkpt lat="46.2253" lon="6.14956">
        <ele>389.47</ele>
        <time>2014-08-19T10:02:25Z</time>
      </trkpt>
      <trkpt lat="46.22532" lon="6.14956">
        <ele>389.47</ele>
        <time>2014-08-19T10:02:26Z</time>
      </trkpt>
      <trkpt lat="46.22534" lon="6.14955">
        <ele>389.47</ele>
        <time>2014-08-19T10:02:27Z</time>
      </trkpt>
      <trkpt lat="46.22537" lon="6.14954">
        <ele>389.47</ele>
        <time>2014-08-19T10:02:28Z</time>
      </trkpt>
      <trkpt lat="46.22539" lon="6.14954">
        <ele>389.47</ele>
        <time>2014-08-19T10:02:29Z</time>
      </trkpt>
      <trkpt lat="46.22541" lon="6.14953">
        <ele>389.47</ele>
        <time>2014-08-19T10:02:30Z</time>
      </trkpt>
      <trkpt lat="46.22542" lon="6.14952">
        <ele>389.47</ele>
        <time>2014-08-19T10:02:31Z</time>
      </trkpt>
      <trkpt lat="46.22544" lon="6.14951">
        <ele>389.47</ele>
        <time>2014-08-19T10:02:32Z</time>
      </trkpt>
      <trkpt lat="46.2256" lon="6.14952">
        <ele>389.47</ele>
        <time>2014-08-19T10:02:43Z</time>
      </trkpt>
      <trkpt lat="46.22596" lon="6.14929">
        <ele>389.47</ele>
        <time>2014-08-19T10:02:57Z</time>
      </trkpt>
      <trkpt lat="46.22611" lon="6.14921">
        <ele>389.47</ele>
        <time>2014-08-19T10:03:03Z</time>
      </trkpt>
      <trkpt lat="46.2262" lon="6.14913">
        <ele>390.91</ele>
        <time>2014-08-19T10:03:08Z</time>
      </trkpt>
      <trkpt lat="46.22622" lon="6.14911">
        <ele>390.91</ele>
        <time>2014-08-19T10:03:09Z</time>
      </trkpt>
      <trkpt lat="46.22629" lon="6.14878">
        <ele>390.91</ele>
        <time>2014-08-19T10:03:20Z</time>
      </trkpt>
      <trkpt lat="46.22647" lon="6.14831">
        <ele>391.39</ele>
        <time>2014-08-19T10:03:38Z</time>
      </trkpt>
      <trkpt lat="46.22649" lon="6.14828">
        <ele>391.39</ele>
        <time>2014-08-19T10:03:39Z</time>
      </trkpt>
      <trkpt lat="46.22666" lon="6.14802">
        <ele>392.36</ele>
        <time>2014-08-19T10:03:47Z</time>
      </trkpt>
      <trkpt lat="46.22665" lon="6.14802">
        <ele>393.32</ele>
        <time>2014-08-19T10:03:48Z</time>
      </trkpt>
      <trkpt lat="46.22642" lon="6.14796">
        <ele>394.76</ele>
        <time>2014-08-19T10:03:59Z</time>
      </trkpt>
      <trkpt lat="46.22634" lon="6.14789">
        <ele>395.24</ele>
        <time>2014-08-19T10:04:04Z</time>
      </trkpt>
      <trkpt lat="46.22633" lon="6.14788">
        <ele>396.2</ele>
        <time>2014-08-19T10:04:05Z</time>
      </trkpt>
      <trkpt lat="46.22633" lon="6.14786">
        <ele>395.72</ele>
        <time>2014-08-19T10:04:06Z</time>
      </trkpt>
      <trkpt lat="46.22633" lon="6.14782">
        <ele>395.72</ele>
        <time>2014-08-19T10:04:08Z</time>
      </trkpt>
      <trkpt lat="46.22633" lon="6.14781">
        <ele>395.72</ele>
        <time>2014-08-19T10:04:09Z</time>
      </trkpt>
      <trkpt lat="46.22634" lon="6.14779">
        <ele>395.72</ele>
        <time>2014-08-19T10:04:10Z</time>
      </trkpt>
      <trkpt lat="46.22636" lon="6.14779">
        <ele>395.72</ele>
        <time>2014-08-19T10:04:11Z</time>
      </trkpt>
      <trkpt lat="46.22647" lon="6.14764">
        <ele>396.68</ele>
        <time>2014-08-19T10:04:21Z</time>
      </trkpt>
      <trkpt lat="46.22661" lon="6.14763">
        <ele>396.68</ele>
        <time>2014-08-19T10:04:30Z</time>
      </trkpt>
      <trkpt lat="46.22662" lon="6.14763">
        <ele>396.68</ele>
        <time>2014-08-19T10:04:31Z</time>
      </trkpt>
      <trkpt lat="46.22663" lon="6.14764">
        <ele>396.68</ele>
        <time>2014-08-19T10:04:32Z</time>
      </trkpt>
      <trkpt lat="46.22666" lon="6.14763">
        <ele>396.68</ele>
        <time>2014-08-19T10:04:33Z</time>
      </trkpt>
      <trkpt lat="46.22668" lon="6.14763">
        <ele>396.68</ele>
        <time>2014-08-19T10:04:34Z</time>
      </trkpt>
      <trkpt lat="46.22671" lon="6.14762">
        <ele>396.68</ele>
        <time>2014-08-19T10:04:35Z</time>
      </trkpt>
      <trkpt lat="46.22674" lon="6.14763">
        <ele>396.68</ele>
        <time>2014-08-19T10:04:36Z</time>
      </trkpt>
      <trkpt lat="46.22676" lon="6.14764">
        <ele>396.68</ele>
        <time>2014-08-19T10:04:37Z</time>
      </trkpt>
      <trkpt lat="46.22687" lon="6.14775">
        <ele>396.68</ele>
        <time>2014-08-19T10:04:42Z</time>
      </trkpt>
      <trkpt lat="46.22714" lon="6.14803">
        <ele>395.72</ele>
        <time>2014-08-19T10:04:54Z</time>
      </trkpt>
      <trkpt lat="46.2274" lon="6.148">
        <ele>395.72</ele>
        <time>2014-08-19T10:05:06Z</time>
      </trkpt>
      <trkpt lat="46.22759" lon="6.1478">
        <ele>395.72</ele>
        <time>2014-08-19T10:05:18Z</time>
      </trkpt>
      <trkpt lat="46.22768" lon="6.14761">
        <ele>397.16</ele>
        <time>2014-08-19T10:05:26Z</time>
      </trkpt>
      <trkpt lat="46.22775" lon="6.14726">
        <ele>399.08</ele>
        <time>2014-08-19T10:05:39Z</time>
      </trkpt>
      <trkpt lat="46.22776" lon="6.14696">
        <ele>400.05</ele>
        <time>2014-08-19T10:05:51Z</time>
      </trkpt>
      <trkpt lat="46.22776" lon="6.14692">
        <ele>401.01</ele>
        <time>2014-08-19T10:05:53Z</time>
      </trkpt>
      <trkpt lat="46.22776" lon="6.1469">
        <ele>401.01</ele>
        <time>2014-08-19T10:05:54Z</time>
      </trkpt>
      <trkpt lat="46.22791" lon="6.14678">
        <ele>401.01</ele>
        <time>2014-08-19T10:06:06Z</time>
      </trkpt>
      <trkpt lat="46.22792" lon="6.14677">
        <ele>401.01</ele>
        <time>2014-08-19T10:06:07Z</time>
      </trkpt>
      <trkpt lat="46.22797" lon="6.14681">
        <ele>401.49</ele>
        <time>2014-08-19T10:06:12Z</time>
      </trkpt>
      <trkpt lat="46.228" lon="6.14681">
        <ele>401.49</ele>
        <time>2014-08-19T10:06:13Z</time>
      </trkpt>
      <trkpt lat="46.22803" lon="6.14682">
        <ele>401.49</ele>
        <time>2014-08-19T10:06:14Z</time>
      </trkpt>
      <trkpt lat="46.22813" lon="6.14684">
        <ele>401.49</ele>
        <time>2014-08-19T10:06:19Z</time>
      </trkpt>
      <trkpt lat="46.22817" lon="6.14686">
        <ele>401.49</ele>
        <time>2014-08-19T10:06:24Z</time>
      </trkpt>
      <trkpt lat="46.22819" lon="6.14687">
        <ele>401.49</ele>
        <time>2014-08-19T10:06:25Z</time>
      </trkpt>
      <trkpt lat="46.2282" lon="6.14688">
        <ele>401.49</ele>
        <time>2014-08-19T10:06:26Z</time>
      </trkpt>
      <trkpt lat="46.22822" lon="6.14688">
        <ele>401.49</ele>
        <time>2014-08-19T10:06:27Z</time>
      </trkpt>
      <trkpt lat="46.22823" lon="6.14688">
        <ele>401.49</ele>
        <time>2014-08-19T10:06:28Z</time>
      </trkpt>
      <trkpt lat="46.22825" lon="6.14687">
        <ele>401.49</ele>
        <time>2014-08-19T10:06:29Z</time>
      </trkpt>
      <trkpt lat="46.22826" lon="6.14686">
        <ele>401.49</ele>
        <time>2014-08-19T10:06:30Z</time>
      </trkpt>
      <trkpt lat="46.22839" lon="6.14662">
        <ele>403.41</ele>
        <time>2014-08-19T10:06:41Z</time>
      </trkpt>
      <trkpt lat="46.22855" lon="6.14647">
        <ele>405.33</ele>
        <time>2014-08-19T10:06:50Z</time>
      </trkpt>
      <trkpt lat="46.22873" lon="6.14637">
        <ele>407.26</ele>
        <time>2014-08-19T10:06:59Z</time>
      </trkpt>
      <trkpt lat="46.22884" lon="6.14631">
        <ele>408.7</ele>
        <time>2014-08-19T10:07:04Z</time>
      </trkpt>
      <trkpt lat="46.22913" lon="6.14613">
        <ele>411.1</ele>
        <time>2014-08-19T10:07:16Z</time>
      </trkpt>
      <trkpt lat="46.22951" lon="6.14603">
        <ele>413.02</ele>
        <time>2014-08-19T10:07:31Z</time>
      </trkpt>
      <trkpt lat="46.22979" lon="6.14611">
        <ele>413.5</ele>
        <time>2014-08-19T10:07:43Z</time>
      </trkpt>
      <trkpt lat="46.22997" lon="6.14631">
        <ele>410.62</ele>
        <time>2014-08-19T10:07:52Z</time>
      </trkpt>
      <trkpt lat="46.23006" lon="6.14646">
        <ele>409.18</ele>
        <time>2014-08-19T10:07:57Z</time>
      </trkpt>
      <trkpt lat="46.23009" lon="6.14671">
        <ele>405.81</ele>
        <time>2014-08-19T10:08:05Z</time>
      </trkpt>
      <trkpt lat="46.2301" lon="6.14675">
        <ele>405.33</ele>
        <time>2014-08-19T10:08:06Z</time>
      </trkpt>
      <trkpt lat="46.23022" lon="6.14688">
        <ele>404.85</ele>
        <time>2014-08-19T10:08:11Z</time>
      </trkpt>
      <trkpt lat="46.23054" lon="6.1472">
        <ele>403.41</ele>
        <time>2014-08-19T10:08:26Z</time>
      </trkpt>
      <trkpt lat="46.23062" lon="6.14768">
        <ele>401.49</ele>
        <time>2014-08-19T10:08:40Z</time>
      </trkpt>
      <trkpt lat="46.2306" lon="6.14805">
        <ele>400.53</ele>
        <time>2014-08-19T10:08:52Z</time>
      </trkpt>
      <trkpt lat="46.23057" lon="6.14837">
        <ele>398.6</ele>
        <time>2014-08-19T10:09:04Z</time>
      </trkpt>
      <trkpt lat="46.23049" lon="6.14856">
        <ele>398.12</ele>
        <time>2014-08-19T10:09:16Z</time>
      </trkpt>
      <trkpt lat="46.23045" lon="6.1486">
        <ele>397.16</ele>
        <time>2014-08-19T10:09:21Z</time>
      </trkpt>
      <trkpt lat="46.23025" lon="6.14867">
        <ele>397.64</ele>
        <time>2014-08-19T10:09:31Z</time>
      </trkpt>
      <trkpt lat="46.2301" lon="6.1487">
        <ele>397.64</ele>
        <time>2014-08-19T10:09:37Z</time>
      </trkpt>
      <trkpt lat="46.23001" lon="6.14868">
        <ele>397.64</ele>
        <time>2014-08-19T10:09:41Z</time>
      </trkpt>
      <trkpt lat="46.22977" lon="6.14872">
        <ele>397.64</ele>
        <time>2014-08-19T10:09:53Z</time>
      </trkpt>
      <trkpt lat="46.22972" lon="6.14872">
        <ele>397.64</ele>
        <time>2014-08-19T10:09:56Z</time>
      </trkpt>
      <trkpt lat="46.2297" lon="6.14871">
        <ele>397.64</ele>
        <time>2014-08-19T10:09:57Z</time>
      </trkpt>
      <trkpt lat="46.22942" lon="6.14869">
        <ele>397.16</ele>
        <time>2014-08-19T10:10:08Z</time>
      </trkpt>
      <trkpt lat="46.2292" lon="6.14866">
        <ele>397.16</ele>
        <time>2014-08-19T10:10:17Z</time>
      </trkpt>
      <trkpt lat="46.22904" lon="6.14863">
        <ele>397.16</ele>
        <time>2014-08-19T10:10:24Z</time>
      </trkpt>
      <trkpt lat="46.22893" lon="6.14855">
        <ele>397.16</ele>
        <time>2014-08-19T10:10:29Z</time>
      </trkpt>
      <trkpt lat="46.22891" lon="6.14853">
        <ele>397.16</ele>
        <time>2014-08-19T10:10:30Z</time>
      </trkpt>
      <trkpt lat="46.2289" lon="6.1485">
        <ele>397.16</ele>
        <time>2014-08-19T10:10:31Z</time>
      </trkpt>
      <trkpt lat="46.22868" lon="6.14822">
        <ele>397.16</ele>
        <time>2014-08-19T10:10:42Z</time>
      </trkpt>
      <trkpt lat="46.22861" lon="6.14807">
        <ele>398.6</ele>
        <time>2014-08-19T10:10:48Z</time>
      </trkpt>
      <trkpt lat="46.22857" lon="6.1478">
        <ele>400.53</ele>
        <time>2014-08-19T10:11:01Z</time>
      </trkpt>
      <trkpt lat="46.22856" lon="6.14741">
        <ele>401.97</ele>
        <time>2014-08-19T10:11:13Z</time>
      </trkpt>
      <trkpt lat="46.22859" lon="6.147">
        <ele>402.93</ele>
        <time>2014-08-19T10:11:27Z</time>
      </trkpt>
      <trkpt lat="46.22869" lon="6.14667">
        <ele>405.33</ele>
        <time>2014-08-19T10:11:39Z</time>
      </trkpt>
      <trkpt lat="46.22875" lon="6.14656">
        <ele>407.26</ele>
        <time>2014-08-19T10:11:48Z</time>
      </trkpt>
      <trkpt lat="46.22895" lon="6.14643">
        <ele>409.66</ele>
        <time>2014-08-19T10:12:00Z</time>
      </trkpt>
      <trkpt lat="46.22924" lon="6.14618">
        <ele>413.02</ele>
        <time>2014-08-19T10:12:13Z</time>
      </trkpt>
      <trkpt lat="46.22947" lon="6.14609">
        <ele>413.98</ele>
        <time>2014-08-19T10:12:26Z</time>
      </trkpt>
      <trkpt lat="46.2297" lon="6.14608">
        <ele>414.95</ele>
        <time>2014-08-19T10:12:39Z</time>
      </trkpt>
      <trkpt lat="46.22979" lon="6.14619">
        <ele>413.98</ele>
        <time>2014-08-19T10:12:45Z</time>
      </trkpt>
      <trkpt lat="46.22988" lon="6.14632">
        <ele>413.02</ele>
        <time>2014-08-19T10:12:51Z</time>
      </trkpt>
      <trkpt lat="46.22989" lon="6.14634">
        <ele>412.06</ele>
        <time>2014-08-19T10:12:52Z</time>
      </trkpt>
      <trkpt lat="46.23006" lon="6.14651">
        <ele>409.18</ele>
        <time>2014-08-19T10:13:02Z</time>
      </trkpt>
      <trkpt lat="46.23015" lon="6.14683">
        <ele>406.29</ele>
        <time>2014-08-19T10:13:11Z</time>
      </trkpt>
      <trkpt lat="46.23043" lon="6.14709">
        <ele>405.33</ele>
        <time>2014-08-19T10:13:23Z</time>
      </trkpt>
      <trkpt lat="46.23058" lon="6.14747">
        <ele>403.41</ele>
        <time>2014-08-19T10:13:37Z</time>
      </trkpt>
      <trkpt lat="46.23061" lon="6.14777">
        <ele>402.45</ele>
        <time>2014-08-19T10:13:49Z</time>
      </trkpt>
      <trkpt lat="46.2306" lon="6.14805">
        <ele>401.49</ele>
        <time>2014-08-19T10:14:01Z</time>
      </trkpt>
      <trkpt lat="46.23059" lon="6.14813">
        <ele>401.01</ele>
        <time>2014-08-19T10:14:04Z</time>
      </trkpt>
      <trkpt lat="46.23056" lon="6.14842">
        <ele>399.57</ele>
        <time>2014-08-19T10:14:15Z</time>
      </trkpt>
      <trkpt lat="46.23049" lon="6.14852">
        <ele>399.08</ele>
        <time>2014-08-19T10:14:20Z</time>
      </trkpt>
      <trkpt lat="46.23033" lon="6.14862">
        <ele>399.57</ele>
        <time>2014-08-19T10:14:30Z</time>
      </trkpt>
      <trkpt lat="46.23013" lon="6.14864">
        <ele>399.57</ele>
        <time>2014-08-19T10:14:42Z</time>
      </trkpt>
      <trkpt lat="46.22997" lon="6.1486">
        <ele>400.05</ele>
        <time>2014-08-19T10:14:51Z</time>
      </trkpt>
      <trkpt lat="46.22988" lon="6.14854">
        <ele>401.49</ele>
        <time>2014-08-19T10:15:02Z</time>
      </trkpt>
      <trkpt lat="46.22966" lon="6.14836">
        <ele>402.93</ele>
        <time>2014-08-19T10:15:15Z</time>
      </trkpt>
      <trkpt lat="46.22959" lon="6.14823">
        <ele>403.41</ele>
        <time>2014-08-19T10:15:20Z</time>
      </trkpt>
      <trkpt lat="46.22958" lon="6.14822">
        <ele>403.41</ele>
        <time>2014-08-19T10:15:21Z</time>
      </trkpt>
      <trkpt lat="46.22935" lon="6.14805">
        <ele>403.89</ele>
        <time>2014-08-19T10:15:32Z</time>
      </trkpt>
      <trkpt lat="46.22904" lon="6.14792">
        <ele>403.89</ele>
        <time>2014-08-19T10:15:43Z</time>
      </trkpt>
      <trkpt lat="46.22864" lon="6.14775">
        <ele>403.89</ele>
        <time>2014-08-19T10:15:57Z</time>
      </trkpt>
      <trkpt lat="46.22855" lon="6.14765">
        <ele>403.89</ele>
        <time>2014-08-19T10:16:00Z</time>
      </trkpt>
      <trkpt lat="46.22854" lon="6.14761">
        <ele>403.89</ele>
        <time>2014-08-19T10:16:01Z</time>
      </trkpt>
      <trkpt lat="46.22853" lon="6.14718">
        <ele>404.85</ele>
        <time>2014-08-19T10:16:14Z</time>
      </trkpt>
      <trkpt lat="46.22852" lon="6.14705">
        <ele>405.33</ele>
        <time>2014-08-19T10:16:19Z</time>
      </trkpt>
      <trkpt lat="46.22851" lon="6.14704">
        <ele>405.33</ele>
        <time>2014-08-19T10:16:20Z</time>
      </trkpt>
      <trkpt lat="46.2285" lon="6.14704">
        <ele>404.85</ele>
        <time>2014-08-19T10:16:21Z</time>
      </trkpt>
      <trkpt lat="46.22848" lon="6.14702">
        <ele>404.85</ele>
        <time>2014-08-19T10:16:22Z</time>
      </trkpt>
      <trkpt lat="46.22847" lon="6.14701">
        <ele>405.33</ele>
        <time>2014-08-19T10:16:23Z</time>
      </trkpt>
      <trkpt lat="46.22846" lon="6.147">
        <ele>405.33</ele>
        <time>2014-08-19T10:16:24Z</time>
      </trkpt>
      <trkpt lat="46.22827" lon="6.14686">
        <ele>405.81</ele>
        <time>2014-08-19T10:16:33Z</time>
      </trkpt>
      <trkpt lat="46.22818" lon="6.14681">
        <ele>405.81</ele>
        <time>2014-08-19T10:16:37Z</time>
      </trkpt>
      <trkpt lat="46.22816" lon="6.14679">
        <ele>405.81</ele>
        <time>2014-08-19T10:16:38Z</time>
      </trkpt>
      <trkpt lat="46.22814" lon="6.14678">
        <ele>405.81</ele>
        <time>2014-08-19T10:16:39Z</time>
      </trkpt>
      <trkpt lat="46.22793" lon="6.1468">
        <ele>405.81</ele>
        <time>2014-08-19T10:16:50Z</time>
      </trkpt>
      <trkpt lat="46.22791" lon="6.14679">
        <ele>405.81</ele>
        <time>2014-08-19T10:16:51Z</time>
      </trkpt>
      <trkpt lat="46.22789" lon="6.14677">
        <ele>405.81</ele>
        <time>2014-08-19T10:16:52Z</time>
      </trkpt>
      <trkpt lat="46.22787" lon="6.14675">
        <ele>405.81</ele>
        <time>2014-08-19T10:16:53Z</time>
      </trkpt>
      <trkpt lat="46.22785" lon="6.14672">
        <ele>405.81</ele>
        <time>2014-08-19T10:16:54Z</time>
      </trkpt>
      <trkpt lat="46.22747" lon="6.14648">
        <ele>406.29</ele>
        <time>2014-08-19T10:17:07Z</time>
      </trkpt>
      <trkpt lat="46.22722" lon="6.14629">
        <ele>406.77</ele>
        <time>2014-08-19T10:17:19Z</time>
      </trkpt>
      <trkpt lat="46.22718" lon="6.14625">
        <ele>406.77</ele>
        <time>2014-08-19T10:17:21Z</time>
      </trkpt>
      <trkpt lat="46.22716" lon="6.14624">
        <ele>407.26</ele>
        <time>2014-08-19T10:17:22Z</time>
      </trkpt>
      <trkpt lat="46.22714" lon="6.14623">
        <ele>407.26</ele>
        <time>2014-08-19T10:17:23Z</time>
      </trkpt>
      <trkpt lat="46.22711" lon="6.14622">
        <ele>407.26</ele>
        <time>2014-08-19T10:17:24Z</time>
      </trkpt>
      <trkpt lat="46.22709" lon="6.14622">
        <ele>407.74</ele>
        <time>2014-08-19T10:17:25Z</time>
      </trkpt>
      <trkpt lat="46.22706" lon="6.14622">
        <ele>407.74</ele>
        <time>2014-08-19T10:17:29Z</time>
      </trkpt>
      <trkpt lat="46.22705" lon="6.14622">
        <ele>407.74</ele>
        <time>2014-08-19T10:17:30Z</time>
      </trkpt>
      <trkpt lat="46.22703" lon="6.14622">
        <ele>408.22</ele>
        <time>2014-08-19T10:17:31Z</time>
      </trkpt>
      <trkpt lat="46.22702" lon="6.14623">
        <ele>408.22</ele>
        <time>2014-08-19T10:17:32Z</time>
      </trkpt>
      <trkpt lat="46.22701" lon="6.14622">
        <ele>408.22</ele>
        <time>2014-08-19T10:17:33Z</time>
      </trkpt>
      <trkpt lat="46.22696" lon="6.14621">
        <ele>408.22</ele>
        <time>2014-08-19T10:17:36Z</time>
      </trkpt>
      <trkpt lat="46.22695" lon="6.1462">
        <ele>408.22</ele>
        <time>2014-08-19T10:17:37Z</time>
      </trkpt>
      <trkpt lat="46.22694" lon="6.14618">
        <ele>408.22</ele>
        <time>2014-08-19T10:17:38Z</time>
      </trkpt>
      <trkpt lat="46.22686" lon="6.14609">
        <ele>408.7</ele>
        <time>2014-08-19T10:17:44Z</time>
      </trkpt>
      <trkpt lat="46.22651" lon="6.1461">
        <ele>409.18</ele>
        <time>2014-08-19T10:18:00Z</time>
      </trkpt>
      <trkpt lat="46.22609" lon="6.14599">
        <ele>410.62</ele>
        <time>2014-08-19T10:18:14Z</time>
      </trkpt>
      <trkpt lat="46.22575" lon="6.14576">
        <ele>411.1</ele>
        <time>2014-08-19T10:18:27Z</time>
      </trkpt>
      <trkpt lat="46.22544" lon="6.14559">
        <ele>411.58</ele>
        <time>2014-08-19T10:18:41Z</time>
      </trkpt>
      <trkpt lat="46.22512" lon="6.1455">
        <ele>411.58</ele>
        <time>2014-08-19T10:18:54Z</time>
      </trkpt>
      <trkpt lat="46.22491" lon="6.1455">
        <ele>411.58</ele>
        <time>2014-08-19T10:19:04Z</time>
      </trkpt>
      <trkpt lat="46.22464" lon="6.14558">
        <ele>411.58</ele>
        <time>2014-08-19T10:19:17Z</time>
      </trkpt>
      <trkpt lat="46.22455" lon="6.14565">
        <ele>411.58</ele>
        <time>2014-08-19T10:19:22Z</time>
      </trkpt>
      <trkpt lat="46.22453" lon="6.14564">
        <ele>411.58</ele>
        <time>2014-08-19T10:19:23Z</time>
      </trkpt>
      <trkpt lat="46.22451" lon="6.14563">
        <ele>411.58</ele>
        <time>2014-08-19T10:19:24Z</time>
      </trkpt>
      <trkpt lat="46.22449" lon="6.14562">
        <ele>411.58</ele>
        <time>2014-08-19T10:19:25Z</time>
      </trkpt>
      <trkpt lat="46.22447" lon="6.1456">
        <ele>411.58</ele>
        <time>2014-08-19T10:19:26Z</time>
      </trkpt>
      <trkpt lat="46.22442" lon="6.14557">
        <ele>411.58</ele>
        <time>2014-08-19T10:19:29Z</time>
      </trkpt>
      <trkpt lat="46.2244" lon="6.14557">
        <ele>411.58</ele>
        <time>2014-08-19T10:19:30Z</time>
      </trkpt>
      <trkpt lat="46.22438" lon="6.14556">
        <ele>411.58</ele>
        <time>2014-08-19T10:19:31Z</time>
      </trkpt>
      <trkpt lat="46.22437" lon="6.14556">
        <ele>411.58</ele>
        <time>2014-08-19T10:19:32Z</time>
      </trkpt>
      <trkpt lat="46.22435" lon="6.14555">
        <ele>411.58</ele>
        <time>2014-08-19T10:19:33Z</time>
      </trkpt>
      <trkpt lat="46.22433" lon="6.14554">
        <ele>411.58</ele>
        <time>2014-08-19T10:19:34Z</time>
      </trkpt>
      <trkpt lat="46.22432" lon="6.14553">
        <ele>411.58</ele>
        <time>2014-08-19T10:19:35Z</time>
      </trkpt>
      <trkpt lat="46.2243" lon="6.14552">
        <ele>412.54</ele>
        <time>2014-08-19T10:19:36Z</time>
      </trkpt>
      <trkpt lat="46.2241" lon="6.1454">
        <ele>413.98</ele>
        <time>2014-08-19T10:19:47Z</time>
      </trkpt>
      <trkpt lat="46.22408" lon="6.14539">
        <ele>414.47</ele>
        <time>2014-08-19T10:19:48Z</time>
      </trkpt>
      <trkpt lat="46.22406" lon="6.14539">
        <ele>414.47</ele>
        <time>2014-08-19T10:19:49Z</time>
      </trkpt>
      <trkpt lat="46.22404" lon="6.14538">
        <ele>414.95</ele>
        <time>2014-08-19T10:19:50Z</time>
      </trkpt>
      <trkpt lat="46.22403" lon="6.14538">
        <ele>414.95</ele>
        <time>2014-08-19T10:19:51Z</time>
      </trkpt>
      <trkpt lat="46.22401" lon="6.14536">
        <ele>414.95</ele>
        <time>2014-08-19T10:19:52Z</time>
      </trkpt>
      <trkpt lat="46.224" lon="6.14534">
        <ele>415.43</ele>
        <time>2014-08-19T10:19:53Z</time>
      </trkpt>
      <trkpt lat="46.22398" lon="6.14531">
        <ele>415.43</ele>
        <time>2014-08-19T10:19:54Z</time>
      </trkpt>
      <trkpt lat="46.22387" lon="6.14519">
        <ele>416.87</ele>
        <time>2014-08-19T10:20:00Z</time>
      </trkpt>
      <trkpt lat="46.22385" lon="6.14517">
        <ele>416.87</ele>
        <time>2014-08-19T10:20:01Z</time>
      </trkpt>
      <trkpt lat="46.22382" lon="6.14515">
        <ele>416.87</ele>
        <time>2014-08-19T10:20:02Z</time>
      </trkpt>
      <trkpt lat="46.22379" lon="6.14514">
        <ele>416.87</ele>
        <time>2014-08-19T10:20:03Z</time>
      </trkpt>
      <trkpt lat="46.22377" lon="6.14512">
        <ele>416.87</ele>
        <time>2014-08-19T10:20:04Z</time>
      </trkpt>
      <trkpt lat="46.22374" lon="6.1451">
        <ele>416.87</ele>
        <time>2014-08-19T10:20:06Z</time>
      </trkpt>
      <trkpt lat="46.22372" lon="6.14509">
        <ele>417.35</ele>
        <time>2014-08-19T10:20:07Z</time>
      </trkpt>
      <trkpt lat="46.2237" lon="6.14508">
        <ele>417.35</ele>
        <time>2014-08-19T10:20:08Z</time>
      </trkpt>
      <trkpt lat="46.22357" lon="6.14503">
        <ele>417.35</ele>
        <time>2014-08-19T10:20:14Z</time>
      </trkpt>
      <trkpt lat="46.22355" lon="6.14501">
        <ele>417.83</ele>
        <time>2014-08-19T10:20:15Z</time>
      </trkpt>
      <trkpt lat="46.22354" lon="6.14498">
        <ele>417.83</ele>
        <time>2014-08-19T10:20:16Z</time>
      </trkpt>
      <trkpt lat="46.22353" lon="6.14496">
        <ele>417.83</ele>
        <time>2014-08-19T10:20:17Z</time>
      </trkpt>
      <trkpt lat="46.22352" lon="6.14493">
        <ele>417.83</ele>
        <time>2014-08-19T10:20:18Z</time>
      </trkpt>
      <trkpt lat="46.22352" lon="6.1449">
        <ele>417.83</ele>
        <time>2014-08-19T10:20:19Z</time>
      </trkpt>
      <trkpt lat="46.22351" lon="6.14487">
        <ele>417.83</ele>
        <time>2014-08-19T10:20:20Z</time>
      </trkpt>
      <trkpt lat="46.22351" lon="6.14484">
        <ele>417.83</ele>
        <time>2014-08-19T10:20:21Z</time>
      </trkpt>
      <trkpt lat="46.2235" lon="6.14481">
        <ele>417.83</ele>
        <time>2014-08-19T10:20:22Z</time>
      </trkpt>
      <trkpt lat="46.22349" lon="6.14477">
        <ele>418.79</ele>
        <time>2014-08-19T10:20:23Z</time>
      </trkpt>
      <trkpt lat="46.22338" lon="6.14435">
        <ele>418.79</ele>
        <time>2014-08-19T10:20:37Z</time>
      </trkpt>
      <trkpt lat="46.2233" lon="6.14392">
        <ele>419.75</ele>
        <time>2014-08-19T10:20:51Z</time>
      </trkpt>
      <trkpt lat="46.22324" lon="6.14385">
        <ele>419.27</ele>
        <time>2014-08-19T10:20:54Z</time>
      </trkpt>
      <trkpt lat="46.2231" lon="6.14355">
        <ele>417.83</ele>
        <time>2014-08-19T10:21:04Z</time>
      </trkpt>
      <trkpt lat="46.2231" lon="6.14352">
        <ele>417.83</ele>
        <time>2014-08-19T10:21:05Z</time>
      </trkpt>
      <trkpt lat="46.2231" lon="6.1435">
        <ele>417.83</ele>
        <time>2014-08-19T10:21:06Z</time>
      </trkpt>
      <trkpt lat="46.22309" lon="6.14349">
        <ele>417.83</ele>
        <time>2014-08-19T10:21:07Z</time>
      </trkpt>
      <trkpt lat="46.22308" lon="6.14346">
        <ele>417.83</ele>
        <time>2014-08-19T10:21:09Z</time>
      </trkpt>
      <trkpt lat="46.22304" lon="6.14331">
        <ele>418.79</ele>
        <time>2014-08-19T10:21:19Z</time>
      </trkpt>
      <trkpt lat="46.22302" lon="6.14328">
        <ele>418.79</ele>
        <time>2014-08-19T10:21:21Z</time>
      </trkpt>
      <trkpt lat="46.22298" lon="6.14326">
        <ele>418.79</ele>
        <time>2014-08-19T10:21:23Z</time>
      </trkpt>
      <trkpt lat="46.22278" lon="6.14299">
        <ele>419.27</ele>
        <time>2014-08-19T10:21:35Z</time>
      </trkpt>
      <trkpt lat="46.22274" lon="6.1428">
        <ele>419.27</ele>
        <time>2014-08-19T10:21:40Z</time>
      </trkpt>
      <trkpt lat="46.22244" lon="6.14241">
        <ele>420.71</ele>
        <time>2014-08-19T10:21:54Z</time>
      </trkpt>
      <trkpt lat="46.22221" lon="6.14231">
        <ele>420.71</ele>
        <time>2014-08-19T10:22:05Z</time>
      </trkpt>
      <trkpt lat="46.22192" lon="6.14214">
        <ele>420.71</ele>
        <time>2014-08-19T10:22:18Z</time>
      </trkpt>
      <trkpt lat="46.22165" lon="6.14197">
        <ele>420.71</ele>
        <time>2014-08-19T10:22:31Z</time>
      </trkpt>
      <trkpt lat="46.22138" lon="6.14184">
        <ele>420.71</ele>
        <time>2014-08-19T10:22:43Z</time>
      </trkpt>
      <trkpt lat="46.22118" lon="6.1418">
        <ele>420.71</ele>
        <time>2014-08-19T10:22:55Z</time>
      </trkpt>
      <trkpt lat="46.22104" lon="6.14184">
        <ele>421.68</ele>
        <time>2014-08-19T10:23:02Z</time>
      </trkpt>
      <trkpt lat="46.22077" lon="6.14166">
        <ele>422.16</ele>
        <time>2014-08-19T10:23:13Z</time>
      </trkpt>
      <trkpt lat="46.22041" lon="6.14148">
        <ele>422.16</ele>
        <time>2014-08-19T10:23:26Z</time>
      </trkpt>
      <trkpt lat="46.22026" lon="6.14119">
        <ele>423.12</ele>
        <time>2014-08-19T10:23:37Z</time>
      </trkpt>
      <trkpt lat="46.22025" lon="6.14116">
        <ele>423.12</ele>
        <time>2014-08-19T10:23:38Z</time>
      </trkpt>
      <trkpt lat="46.22025" lon="6.14113">
        <ele>423.12</ele>
        <time>2014-08-19T10:23:39Z</time>
      </trkpt>
      <trkpt lat="46.22024" lon="6.1411">
        <ele>423.12</ele>
        <time>2014-08-19T10:23:40Z</time>
      </trkpt>
      <trkpt lat="46.22023" lon="6.14107">
        <ele>423.12</ele>
        <time>2014-08-19T10:23:41Z</time>
      </trkpt>
      <trkpt lat="46.22022" lon="6.14104">
        <ele>423.12</ele>
        <time>2014-08-19T10:23:42Z</time>
      </trkpt>
      <trkpt lat="46.22021" lon="6.14101">
        <ele>423.12</ele>
        <time>2014-08-19T10:23:43Z</time>
      </trkpt>
      <trkpt lat="46.22015" lon="6.14088">
        <ele>423.6</ele>
        <time>2014-08-19T10:23:48Z</time>
      </trkpt>
      <trkpt lat="46.21996" lon="6.14065">
        <ele>423.6</ele>
        <time>2014-08-19T10:24:00Z</time>
      </trkpt>
      <trkpt lat="46.21993" lon="6.14066">
        <ele>423.6</ele>
        <time>2014-08-19T10:24:01Z</time>
      </trkpt>
      <trkpt lat="46.2199" lon="6.14065">
        <ele>424.08</ele>
        <time>2014-08-19T10:24:02Z</time>
      </trkpt>
      <trkpt lat="46.21988" lon="6.14064">
        <ele>424.08</ele>
        <time>2014-08-19T10:24:03Z</time>
      </trkpt>
      <trkpt lat="46.21988" lon="6.14061">
        <ele>424.08</ele>
        <time>2014-08-19T10:24:04Z</time>
      </trkpt>
      <trkpt lat="46.21987" lon="6.14058">
        <ele>424.08</ele>
        <time>2014-08-19T10:24:05Z</time>
      </trkpt>
      <trkpt lat="46.21987" lon="6.14056">
        <ele>424.08</ele>
        <time>2014-08-19T10:24:06Z</time>
      </trkpt>
      <trkpt lat="46.21977" lon="6.14032">
        <ele>424.56</ele>
        <time>2014-08-19T10:24:14Z</time>
      </trkpt>
      <trkpt lat="46.21967" lon="6.13996">
        <ele>424.56</ele>
        <time>2014-08-19T10:24:26Z</time>
      </trkpt>
      <trkpt lat="46.2195" lon="6.13961">
        <ele>425.52</ele>
        <time>2014-08-19T10:24:38Z</time>
      </trkpt>
      <trkpt lat="46.21924" lon="6.13924">
        <ele>426.96</ele>
        <time>2014-08-19T10:24:54Z</time>
      </trkpt>
      <trkpt lat="46.21918" lon="6.13921">
        <ele>427.44</ele>
        <time>2014-08-19T10:24:58Z</time>
      </trkpt>
      <trkpt lat="46.21916" lon="6.13921">
        <ele>427.44</ele>
        <time>2014-08-19T10:24:59Z</time>
      </trkpt>
      <trkpt lat="46.21914" lon="6.1392">
        <ele>427.92</ele>
        <time>2014-08-19T10:25:00Z</time>
      </trkpt>
      <trkpt lat="46.21905" lon="6.13916">
        <ele>428.4</ele>
        <time>2014-08-19T10:25:06Z</time>
      </trkpt>
      <trkpt lat="46.21903" lon="6.13915">
        <ele>428.4</ele>
        <time>2014-08-19T10:25:07Z</time>
      </trkpt>
      <trkpt lat="46.21893" lon="6.13905">
        <ele>428.89</ele>
        <time>2014-08-19T10:25:13Z</time>
      </trkpt>
      <trkpt lat="46.21891" lon="6.13904">
        <ele>428.89</ele>
        <time>2014-08-19T10:25:14Z</time>
      </trkpt>
      <trkpt lat="46.21888" lon="6.13902">
        <ele>428.89</ele>
        <time>2014-08-19T10:25:15Z</time>
      </trkpt>
      <trkpt lat="46.21857" lon="6.13893">
        <ele>428.89</ele>
        <time>2014-08-19T10:25:28Z</time>
      </trkpt>
      <trkpt lat="46.21827" lon="6.13883">
        <ele>428.89</ele>
        <time>2014-08-19T10:25:40Z</time>
      </trkpt>
      <trkpt lat="46.21825" lon="6.13882">
        <ele>428.89</ele>
        <time>2014-08-19T10:25:41Z</time>
      </trkpt>
      <trkpt lat="46.21818" lon="6.13872">
        <ele>428.89</ele>
        <time>2014-08-19T10:25:46Z</time>
      </trkpt>
      <trkpt lat="46.21815" lon="6.13872">
        <ele>428.89</ele>
        <time>2014-08-19T10:25:47Z</time>
      </trkpt>
      <trkpt lat="46.21814" lon="6.13871">
        <ele>428.89</ele>
        <time>2014-08-19T10:25:48Z</time>
      </trkpt>
      <trkpt lat="46.21812" lon="6.13872">
        <ele>428.89</ele>
        <time>2014-08-19T10:25:50Z</time>
      </trkpt>
      <trkpt lat="46.21811" lon="6.13873">
        <ele>428.89</ele>
        <time>2014-08-19T10:25:51Z</time>
      </trkpt>
      <trkpt lat="46.21806" lon="6.13874">
        <ele>428.89</ele>
        <time>2014-08-19T10:25:56Z</time>
      </trkpt>
      <trkpt lat="46.21804" lon="6.13872">
        <ele>428.89</ele>
        <time>2014-08-19T10:25:57Z</time>
      </trkpt>
      <trkpt lat="46.21797" lon="6.1387">
        <ele>428.89</ele>
        <time>2014-08-19T10:26:01Z</time>
      </trkpt>
      <trkpt lat="46.21785" lon="6.13872">
        <ele>428.89</ele>
        <time>2014-08-19T10:26:05Z</time>
      </trkpt>
      <trkpt lat="46.21783" lon="6.1387">
        <ele>428.89</ele>
        <time>2014-08-19T10:26:06Z</time>
      </trkpt>
      <trkpt lat="46.21777" lon="6.13866">
        <ele>429.37</ele>
        <time>2014-08-19T10:26:10Z</time>
      </trkpt>
      <trkpt lat="46.21776" lon="6.13865">
        <ele>429.85</ele>
        <time>2014-08-19T10:26:11Z</time>
      </trkpt>
      <trkpt lat="46.21774" lon="6.13864">
        <ele>429.85</ele>
        <time>2014-08-19T10:26:12Z</time>
      </trkpt>
      <trkpt lat="46.21773" lon="6.13863">
        <ele>429.85</ele>
        <time>2014-08-19T10:26:13Z</time>
      </trkpt>
      <trkpt lat="46.21771" lon="6.13861">
        <ele>429.85</ele>
        <time>2014-08-19T10:26:14Z</time>
      </trkpt>
      <trkpt lat="46.2177" lon="6.13859">
        <ele>430.33</ele>
        <time>2014-08-19T10:26:15Z</time>
      </trkpt>
      <trkpt lat="46.21768" lon="6.13858">
        <ele>430.33</ele>
        <time>2014-08-19T10:26:16Z</time>
      </trkpt>
      <trkpt lat="46.21766" lon="6.13856">
        <ele>430.33</ele>
        <time>2014-08-19T10:26:17Z</time>
      </trkpt>
      <trkpt lat="46.21765" lon="6.13855">
        <ele>430.33</ele>
        <time>2014-08-19T10:26:18Z</time>
      </trkpt>
      <trkpt lat="46.21763" lon="6.13853">
        <ele>430.33</ele>
        <time>2014-08-19T10:26:19Z</time>
      </trkpt>
      <trkpt lat="46.2176" lon="6.13852">
        <ele>430.33</ele>
        <time>2014-08-19T10:26:20Z</time>
      </trkpt>
      <trkpt lat="46.21758" lon="6.1385">
        <ele>430.33</ele>
        <time>2014-08-19T10:26:21Z</time>
      </trkpt>
      <trkpt lat="46.21756" lon="6.13848">
        <ele>430.81</ele>
        <time>2014-08-19T10:26:22Z</time>
      </trkpt>
      <trkpt lat="46.21754" lon="6.13847">
        <ele>430.81</ele>
        <time>2014-08-19T10:26:23Z</time>
      </trkpt>
      <trkpt lat="46.21752" lon="6.13846">
        <ele>430.81</ele>
        <time>2014-08-19T10:26:24Z</time>
      </trkpt>
      <trkpt lat="46.21749" lon="6.13845">
        <ele>430.81</ele>
        <time>2014-08-19T10:26:25Z</time>
      </trkpt>
      <trkpt lat="46.21747" lon="6.13844">
        <ele>430.81</ele>
        <time>2014-08-19T10:26:26Z</time>
      </trkpt>
      <trkpt lat="46.21745" lon="6.13843">
        <ele>430.81</ele>
        <time>2014-08-19T10:26:27Z</time>
      </trkpt>
      <trkpt lat="46.21743" lon="6.13842">
        <ele>430.81</ele>
        <time>2014-08-19T10:26:28Z</time>
      </trkpt>
      <trkpt lat="46.21741" lon="6.1384">
        <ele>430.81</ele>
        <time>2014-08-19T10:26:29Z</time>
      </trkpt>
      <trkpt lat="46.21739" lon="6.13839">
        <ele>430.81</ele>
        <time>2014-08-19T10:26:30Z</time>
      </trkpt>
      <trkpt lat="46.21737" lon="6.13839">
        <ele>430.81</ele>
        <time>2014-08-19T10:26:31Z</time>
      </trkpt>
      <trkpt lat="46.21735" lon="6.13839">
        <ele>430.81</ele>
        <time>2014-08-19T10:26:32Z</time>
      </trkpt>
      <trkpt lat="46.21733" lon="6.1384">
        <ele>430.81</ele>
        <time>2014-08-19T10:26:33Z</time>
      </trkpt>
      <trkpt lat="46.21731" lon="6.1384">
        <ele>430.81</ele>
        <time>2014-08-19T10:26:34Z</time>
      </trkpt>
      <trkpt lat="46.2173" lon="6.13839">
        <ele>431.29</ele>
        <time>2014-08-19T10:26:35Z</time>
      </trkpt>
      <trkpt lat="46.21727" lon="6.13839">
        <ele>431.29</ele>
        <time>2014-08-19T10:26:36Z</time>
      </trkpt>
      <trkpt lat="46.21725" lon="6.13838">
        <ele>431.29</ele>
        <time>2014-08-19T10:26:37Z</time>
      </trkpt>
      <trkpt lat="46.21723" lon="6.13837">
        <ele>431.29</ele>
        <time>2014-08-19T10:26:38Z</time>
      </trkpt>
      <trkpt lat="46.21721" lon="6.13836">
        <ele>431.29</ele>
        <time>2014-08-19T10:26:39Z</time>
      </trkpt>
      <trkpt lat="46.21719" lon="6.13835">
        <ele>431.29</ele>
        <time>2014-08-19T10:26:40Z</time>
      </trkpt>
      <trkpt lat="46.21717" lon="6.13835">
        <ele>431.29</ele>
        <time>2014-08-19T10:26:41Z</time>
      </trkpt>
      <trkpt lat="46.21715" lon="6.13836">
        <ele>431.29</ele>
        <time>2014-08-19T10:26:42Z</time>
      </trkpt>
      <trkpt lat="46.21715" lon="6.13837">
        <ele>431.29</ele>
        <time>2014-08-19T10:26:43Z</time>
      </trkpt>
      <trkpt lat="46.21715" lon="6.13838">
        <ele>431.29</ele>
        <time>2014-08-19T10:26:44Z</time>
      </trkpt>
      <trkpt lat="46.21714" lon="6.13839">
        <ele>431.29</ele>
        <time>2014-08-19T10:26:45Z</time>
      </trkpt>
      <trkpt lat="46.21713" lon="6.13841">
        <ele>431.29</ele>
        <time>2014-08-19T10:26:46Z</time>
      </trkpt>
      <trkpt lat="46.21712" lon="6.13843">
        <ele>431.29</ele>
        <time>2014-08-19T10:26:48Z</time>
      </trkpt>
      <trkpt lat="46.2171" lon="6.13844">
        <ele>431.29</ele>
        <time>2014-08-19T10:26:49Z</time>
      </trkpt>
      <trkpt lat="46.21707" lon="6.13843">
        <ele>431.29</ele>
        <time>2014-08-19T10:26:50Z</time>
      </trkpt>
      <trkpt lat="46.21671" lon="6.13824">
        <ele>431.77</ele>
        <time>2014-08-19T10:27:04Z</time>
      </trkpt>
      <trkpt lat="46.21643" lon="6.1381">
        <ele>433.21</ele>
        <time>2014-08-19T10:27:16Z</time>
      </trkpt>
      <trkpt lat="46.21634" lon="6.13805">
        <ele>433.21</ele>
        <time>2014-08-19T10:27:20Z</time>
      </trkpt>
      <trkpt lat="46.21632" lon="6.13804">
        <ele>433.21</ele>
        <time>2014-08-19T10:27:21Z</time>
      </trkpt>
      <trkpt lat="46.21606" lon="6.13791">
        <ele>433.21</ele>
        <time>2014-08-19T10:27:32Z</time>
      </trkpt>
      <trkpt lat="46.21596" lon="6.13788">
        <ele>433.69</ele>
        <time>2014-08-19T10:27:36Z</time>
      </trkpt>
      <trkpt lat="46.21594" lon="6.13787">
        <ele>433.69</ele>
        <time>2014-08-19T10:27:37Z</time>
      </trkpt>
      <trkpt lat="46.21591" lon="6.13783">
        <ele>433.69</ele>
        <time>2014-08-19T10:27:39Z</time>
      </trkpt>
      <trkpt lat="46.21589" lon="6.13782">
        <ele>433.69</ele>
        <time>2014-08-19T10:27:40Z</time>
      </trkpt>
      <trkpt lat="46.21586" lon="6.13781">
        <ele>434.17</ele>
        <time>2014-08-19T10:27:41Z</time>
      </trkpt>
      <trkpt lat="46.21584" lon="6.1378">
        <ele>434.17</ele>
        <time>2014-08-19T10:27:42Z</time>
      </trkpt>
      <trkpt lat="46.21582" lon="6.1378">
        <ele>434.17</ele>
        <time>2014-08-19T10:27:43Z</time>
      </trkpt>
      <trkpt lat="46.21579" lon="6.1378">
        <ele>434.17</ele>
        <time>2014-08-19T10:27:44Z</time>
      </trkpt>
      <trkpt lat="46.21577" lon="6.13781">
        <ele>434.17</ele>
        <time>2014-08-19T10:27:45Z</time>
      </trkpt>
      <trkpt lat="46.21575" lon="6.13781">
        <ele>434.17</ele>
        <time>2014-08-19T10:27:46Z</time>
      </trkpt>
      <trkpt lat="46.21571" lon="6.13779">
        <ele>434.17</ele>
        <time>2014-08-19T10:27:49Z</time>
      </trkpt>
      <trkpt lat="46.21569" lon="6.13778">
        <ele>434.17</ele>
        <time>2014-08-19T10:27:50Z</time>
      </trkpt>
      <trkpt lat="46.21567" lon="6.13777">
        <ele>434.17</ele>
        <time>2014-08-19T10:27:51Z</time>
      </trkpt>
      <trkpt lat="46.21564" lon="6.13776">
        <ele>434.17</ele>
        <time>2014-08-19T10:27:52Z</time>
      </trkpt>
      <trkpt lat="46.21562" lon="6.13776">
        <ele>434.17</ele>
        <time>2014-08-19T10:27:53Z</time>
      </trkpt>
      <trkpt lat="46.2156" lon="6.13776">
        <ele>434.17</ele>
        <time>2014-08-19T10:27:54Z</time>
      </trkpt>
      <trkpt lat="46.21526" lon="6.13762">
        <ele>435.13</ele>
        <time>2014-08-19T10:28:07Z</time>
      </trkpt>
      <trkpt lat="46.21525" lon="6.1376">
        <ele>435.13</ele>
        <time>2014-08-19T10:28:08Z</time>
      </trkpt>
      <trkpt lat="46.21503" lon="6.13736">
        <ele>435.61</ele>
        <time>2014-08-19T10:28:18Z</time>
      </trkpt>
      <trkpt lat="46.21481" lon="6.13717">
        <ele>436.58</ele>
        <time>2014-08-19T10:28:28Z</time>
      </trkpt>
      <trkpt lat="46.2148" lon="6.13715">
        <ele>436.58</ele>
        <time>2014-08-19T10:28:29Z</time>
      </trkpt>
      <trkpt lat="46.21468" lon="6.13714">
        <ele>436.58</ele>
        <time>2014-08-19T10:28:35Z</time>
      </trkpt>
      <trkpt lat="46.21463" lon="6.13723">
        <ele>436.58</ele>
        <time>2014-08-19T10:28:39Z</time>
      </trkpt>
      <trkpt lat="46.21462" lon="6.13725">
        <ele>437.06</ele>
        <time>2014-08-19T10:28:40Z</time>
      </trkpt>
      <trkpt lat="46.21461" lon="6.13726">
        <ele>437.06</ele>
        <time>2014-08-19T10:28:41Z</time>
      </trkpt>
      <trkpt lat="46.2146" lon="6.13732">
        <ele>435.61</ele>
        <time>2014-08-19T10:28:44Z</time>
      </trkpt>
      <trkpt lat="46.21458" lon="6.13736">
        <ele>435.61</ele>
        <time>2014-08-19T10:28:45Z</time>
      </trkpt>
      <trkpt lat="46.21456" lon="6.13739">
        <ele>435.61</ele>
        <time>2014-08-19T10:28:46Z</time>
      </trkpt>
      <trkpt lat="46.21443" lon="6.13764">
        <ele>435.61</ele>
        <time>2014-08-19T10:28:56Z</time>
      </trkpt>
      <trkpt lat="46.21443" lon="6.13765">
        <ele>435.61</ele>
        <time>2014-08-19T10:28:57Z</time>
      </trkpt>
      <trkpt lat="46.21444" lon="6.1377">
        <ele>435.13</ele>
        <time>2014-08-19T10:29:00Z</time>
      </trkpt>
      <trkpt lat="46.21443" lon="6.13773">
        <ele>435.13</ele>
        <time>2014-08-19T10:29:01Z</time>
      </trkpt>
      <trkpt lat="46.2144" lon="6.13776">
        <ele>435.13</ele>
        <time>2014-08-19T10:29:02Z</time>
      </trkpt>
      <trkpt lat="46.21437" lon="6.13779">
        <ele>435.13</ele>
        <time>2014-08-19T10:29:03Z</time>
      </trkpt>
      <trkpt lat="46.21435" lon="6.13782">
        <ele>434.65</ele>
        <time>2014-08-19T10:29:04Z</time>
      </trkpt>
      <trkpt lat="46.21433" lon="6.13786">
        <ele>434.65</ele>
        <time>2014-08-19T10:29:05Z</time>
      </trkpt>
      <trkpt lat="46.21431" lon="6.1379">
        <ele>434.65</ele>
        <time>2014-08-19T10:29:06Z</time>
      </trkpt>
      <trkpt lat="46.21429" lon="6.13794">
        <ele>434.17</ele>
        <time>2014-08-19T10:29:07Z</time>
      </trkpt>
      <trkpt lat="46.21427" lon="6.13798">
        <ele>434.17</ele>
        <time>2014-08-19T10:29:08Z</time>
      </trkpt>
      <trkpt lat="46.21422" lon="6.13802">
        <ele>433.69</ele>
        <time>2014-08-19T10:29:09Z</time>
      </trkpt>
      <trkpt lat="46.21422" lon="6.13807">
        <ele>434.17</ele>
        <time>2014-08-19T10:29:10Z</time>
      </trkpt>
      <trkpt lat="46.21404" lon="6.13858">
        <ele>432.25</ele>
        <time>2014-08-19T10:29:22Z</time>
      </trkpt>
      <trkpt lat="46.21404" lon="6.13861">
        <ele>432.25</ele>
        <time>2014-08-19T10:29:23Z</time>
      </trkpt>
      <trkpt lat="46.21401" lon="6.1388">
        <ele>430.81</ele>
        <time>2014-08-19T10:29:34Z</time>
      </trkpt>
      <trkpt lat="46.21405" lon="6.13888">
        <ele>430.33</ele>
        <time>2014-08-19T10:29:37Z</time>
      </trkpt>
      <trkpt lat="46.21406" lon="6.13892">
        <ele>430.33</ele>
        <time>2014-08-19T10:29:38Z</time>
      </trkpt>
      <trkpt lat="46.21405" lon="6.13896">
        <ele>430.33</ele>
        <time>2014-08-19T10:29:39Z</time>
      </trkpt>
      <trkpt lat="46.21404" lon="6.13899">
        <ele>429.85</ele>
        <time>2014-08-19T10:29:40Z</time>
      </trkpt>
      <trkpt lat="46.21402" lon="6.13902">
        <ele>429.85</ele>
        <time>2014-08-19T10:29:41Z</time>
      </trkpt>
      <trkpt lat="46.21394" lon="6.13921">
        <ele>428.89</ele>
        <time>2014-08-19T10:29:48Z</time>
      </trkpt>
      <trkpt lat="46.21394" lon="6.13923">
        <ele>428.89</ele>
        <time>2014-08-19T10:29:49Z</time>
      </trkpt>
      <trkpt lat="46.21396" lon="6.13926">
        <ele>429.37</ele>
        <time>2014-08-19T10:29:51Z</time>
      </trkpt>
      <trkpt lat="46.21398" lon="6.13927">
        <ele>429.37</ele>
        <time>2014-08-19T10:29:52Z</time>
      </trkpt>
      <trkpt lat="46.21403" lon="6.13931">
        <ele>428.89</ele>
        <time>2014-08-19T10:29:55Z</time>
      </trkpt>
      <trkpt lat="46.21404" lon="6.13931">
        <ele>428.89</ele>
        <time>2014-08-19T10:29:56Z</time>
      </trkpt>
      <trkpt lat="46.21411" lon="6.13936">
        <ele>428.89</ele>
        <time>2014-08-19T10:30:00Z</time>
      </trkpt>
      <trkpt lat="46.21412" lon="6.13938">
        <ele>428.89</ele>
        <time>2014-08-19T10:30:01Z</time>
      </trkpt>
      <trkpt lat="46.21414" lon="6.13939">
        <ele>428.89</ele>
        <time>2014-08-19T10:30:02Z</time>
      </trkpt>
      <trkpt lat="46.21416" lon="6.13942">
        <ele>428.89</ele>
        <time>2014-08-19T10:30:03Z</time>
      </trkpt>
      <trkpt lat="46.21418" lon="6.13944">
        <ele>429.37</ele>
        <time>2014-08-19T10:30:04Z</time>
      </trkpt>
      <trkpt lat="46.2142" lon="6.13946">
        <ele>429.37</ele>
        <time>2014-08-19T10:30:05Z</time>
      </trkpt>
      <trkpt lat="46.21422" lon="6.13949">
        <ele>429.37</ele>
        <time>2014-08-19T10:30:07Z</time>
      </trkpt>
      <trkpt lat="46.21423" lon="6.13951">
        <ele>429.37</ele>
        <time>2014-08-19T10:30:08Z</time>
      </trkpt>
      <trkpt lat="46.21425" lon="6.13953">
        <ele>429.37</ele>
        <time>2014-08-19T10:30:09Z</time>
      </trkpt>
      <trkpt lat="46.21427" lon="6.13955">
        <ele>429.37</ele>
        <time>2014-08-19T10:30:10Z</time>
      </trkpt>
      <trkpt lat="46.21429" lon="6.13956">
        <ele>429.37</ele>
        <time>2014-08-19T10:30:11Z</time>
      </trkpt>
      <trkpt lat="46.21432" lon="6.13958">
        <ele>429.37</ele>
        <time>2014-08-19T10:30:12Z</time>
      </trkpt>
      <trkpt lat="46.21441" lon="6.13969">
        <ele>429.85</ele>
        <time>2014-08-19T10:30:25Z</time>
      </trkpt>
      <trkpt lat="46.21467" lon="6.13985">
        <ele>430.33</ele>
        <time>2014-08-19T10:30:36Z</time>
      </trkpt>
      <trkpt lat="46.21474" lon="6.14011">
        <ele>430.33</ele>
        <time>2014-08-19T10:30:47Z</time>
      </trkpt>
      <trkpt lat="46.21468" lon="6.14041">
        <ele>428.89</ele>
        <time>2014-08-19T10:30:57Z</time>
      </trkpt>
      <trkpt lat="46.21463" lon="6.14086">
        <ele>427.44</ele>
        <time>2014-08-19T10:31:10Z</time>
      </trkpt>
      <trkpt lat="46.21462" lon="6.14098">
        <ele>426.96</ele>
        <time>2014-08-19T10:31:15Z</time>
      </trkpt>
      <trkpt lat="46.21458" lon="6.14105">
        <ele>427.44</ele>
        <time>2014-08-19T10:31:18Z</time>
      </trkpt>
      <trkpt lat="46.21457" lon="6.14108">
        <ele>427.44</ele>
        <time>2014-08-19T10:31:19Z</time>
      </trkpt>
      <trkpt lat="46.21456" lon="6.14111">
        <ele>427.44</ele>
        <time>2014-08-19T10:31:20Z</time>
      </trkpt>
      <trkpt lat="46.21455" lon="6.14114">
        <ele>427.44</ele>
        <time>2014-08-19T10:31:21Z</time>
      </trkpt>
      <trkpt lat="46.21453" lon="6.14116">
        <ele>427.44</ele>
        <time>2014-08-19T10:31:22Z</time>
      </trkpt>
      <trkpt lat="46.21453" lon="6.14122">
        <ele>427.44</ele>
        <time>2014-08-19T10:31:24Z</time>
      </trkpt>
      <trkpt lat="46.21452" lon="6.14125">
        <ele>427.44</ele>
        <time>2014-08-19T10:31:25Z</time>
      </trkpt>
      <trkpt lat="46.21451" lon="6.14126">
        <ele>427.44</ele>
        <time>2014-08-19T10:31:26Z</time>
      </trkpt>
      <trkpt lat="46.2145" lon="6.14127">
        <ele>427.44</ele>
        <time>2014-08-19T10:31:27Z</time>
      </trkpt>
      <trkpt lat="46.21448" lon="6.1413">
        <ele>427.44</ele>
        <time>2014-08-19T10:31:28Z</time>
      </trkpt>
      <trkpt lat="46.21447" lon="6.1413">
        <ele>427.44</ele>
        <time>2014-08-19T10:31:29Z</time>
      </trkpt>
      <trkpt lat="46.21446" lon="6.14136">
        <ele>426.96</ele>
        <time>2014-08-19T10:31:32Z</time>
      </trkpt>
      <trkpt lat="46.21445" lon="6.1414">
        <ele>426.96</ele>
        <time>2014-08-19T10:31:33Z</time>
      </trkpt>
      <trkpt lat="46.21445" lon="6.14142">
        <ele>427.44</ele>
        <time>2014-08-19T10:31:34Z</time>
      </trkpt>
      <trkpt lat="46.21442" lon="6.14146">
        <ele>428.4</ele>
        <time>2014-08-19T10:31:39Z</time>
      </trkpt>
      <trkpt lat="46.21442" lon="6.14149">
        <ele>429.37</ele>
        <time>2014-08-19T10:31:42Z</time>
      </trkpt>
      <trkpt lat="46.21441" lon="6.14153">
        <ele>429.37</ele>
        <time>2014-08-19T10:31:43Z</time>
      </trkpt>
      <trkpt lat="46.2144" lon="6.14157">
        <ele>429.85</ele>
        <time>2014-08-19T10:31:44Z</time>
      </trkpt>
      <trkpt lat="46.21439" lon="6.14161">
        <ele>429.85</ele>
        <time>2014-08-19T10:31:45Z</time>
      </trkpt>
      <trkpt lat="46.21438" lon="6.14165">
        <ele>429.85</ele>
        <time>2014-08-19T10:31:46Z</time>
      </trkpt>
      <trkpt lat="46.21438" lon="6.14168">
        <ele>429.85</ele>
        <time>2014-08-19T10:31:47Z</time>
      </trkpt>
      <trkpt lat="46.21438" lon="6.1417">
        <ele>429.85</ele>
        <time>2014-08-19T10:31:48Z</time>
      </trkpt>
    </trkseg>
  </trk>
</gpx>